Homestead, IA (52236)

8:03 AM CDT on July 31, 2015 (GMT -0500)
APRSWXNET | | Change Station
CLOSE
Current Station
Personal Weather Station
Location: Williamsburg, IA
Elevation: 793 ft
Nearby Weather Stations
Active Advisory: Flood Warning

Elev 793 ft 41.67 °N, 92.00 °W | Updated 25 minutes ago

Clear
Clear
71 °F
Feels Like 71 °F
N
0
Wind Variable Wind from North
Gusts 0.0 mph

Today
High -- | Low -- °F
--% Chance of Precip.
Yesterday
High -- | Low -- °F
Precip. -- in
6:00 AM 8:26 PM
Full, 100% visible
Pressure 30.07 in
Visibility 10.0 miles
Clouds Clear
Dew Point 68 °F
Humidity 89%
Rainfall in
Snow Depth Not available.
UV 0 out of 12
Pollen 6.50 out of 12
Air Quality Not available.
Flu Activity Not available.
METAR KCID 311152Z 29006KT 10SM CLR 19/18 A3009 RMK AO2 SLP183 T01890183 10200 20178 53006

More Conditions Fewer Conditions

Pressure 30.07 in
Visibility 10.0 miles
Clouds Clear
Dew Point 68 °F
Humidity 89%
Rainfall in
Snow Depth Not available.
UV 0 out of 12
Pollen 6.50 out of 12
Air Quality Not available.
Flu Activity Not available.
METAR KCID 311152Z 29006KT 10SM CLR 19/18 A3009 RMK AO2 SLP183 T01890183 10200 20178 53006

More Conditions Fewer Conditions

10-Day Weather Forecast

×

Almanac

Astronomy

Jul. 31, 2015 Rise Set
Actual Time
Civil Twilight
Nautical Twilight
Astronomical Twilight
Moon
Length of Visible Light
Length of Day
Tomorrow will be .
, % of the Moon is Illuminated

Today's Extremes

State Highs State Lows

Community

WunderPhotos

Upload Photos

1,842,649 photos uploaded!

WunderBlogs® & News

Nearby

Air Quality

  Air Quality AQ Index Pollutant
Not available.

Snow Depth

Station Depth Elevation

Earthquake Activity

City Distance Mag. Time & Date
Minimum magnitude displayed is 2.5.

Coastal Water Temperatures

Place Temperature

Stations

Nearby Weather Stations

Station Location Temp. Windchill Dew Point Humidity Wind Precip. Elev Updated Type
                   
Flood Warning
Statement as of 3:30 AM CDT on July 31, 2015

... Flood Warning now in effect until this morning...

The Flood Warning continues for
the Iowa river at Marengo.
* Until this morning.
* At 3:00 am Friday the stage was 14.3 feet... and steady.
* Flood stage is 14 feet.
* Minor flooding is occurring.
* Forecast... fall below flood stage late this morning.
* Impact... at 14.0 feet... water affects low-lying agricultural land
along the river.


Lat... Lon 4182 9230 4176 9197 4175 9183 4182 9183
      4187 9230